Lowell, MA

10 Minute Time Series

07-11-2020 08:10 PM

TimeTempHumidityDewpointBarometerWind DirWindSpeedWindGustRain
12:10 AM72.1°F95%70.6°F29.828 inHg135° (SE)4 mph11 mph0.00 in
12:20 AM72.2°F95%70.7°F29.823 inHg158° (SSE)4 mph12 mph0.01 in
12:30 AM72.2°F95%70.7°F29.820 inHg180° (S)3 mph8 mph0.00 in
12:40 AM72.2°F95%70.7°F29.818 inHg158° (SSE)4 mph11 mph0.00 in
12:50 AM72.1°F95%70.6°F29.816 inHg158° (SSE)4 mph16 mph0.00 in
01:00 AM72.0°F95%70.5°F29.809 inHg158° (SSE)4 mph10 mph0.00 in
01:10 AM71.9°F95%70.4°F29.802 inHg158° (SSE)3 mph8 mph0.00 in
01:20 AM71.9°F95%70.4°F29.796 inHg135° (SE)2 mph8 mph0.00 in
01:30 AM71.9°F96%70.7°F29.800 inHg158° (SSE)3 mph9 mph0.00 in
01:40 AM71.9°F96%70.7°F29.796 inHg158° (SSE)2 mph6 mph0.00 in
01:50 AM71.9°F96%70.7°F29.793 inHg90° (E)2 mph7 mph0.00 in
02:00 AM72.0°F96%70.8°F29.795 inHg158° (SSE)2 mph8 mph0.00 in
02:10 AM72.1°F96%70.9°F29.792 inHg158° (SSE)2 mph6 mph0.00 in
02:20 AM72.1°F96%70.9°F29.789 inHg135° (SE)2 mph5 mph0.00 in
02:30 AM72.1°F96%70.9°F29.785 inHg135° (SE)2 mph7 mph0.00 in
02:40 AM72.1°F96%70.9°F29.780 inHg158° (SSE)1 mph7 mph0.00 in
02:50 AM72.1°F96%70.9°F29.770 inHg112° (ESE)2 mph6 mph0.00 in
03:00 AM72.1°F96%70.9°F29.767 inHg158° (SSE)2 mph5 mph0.00 in
03:10 AM72.0°F96%70.8°F29.766 inHg158° (SSE)2 mph5 mph0.00 in
03:20 AM72.0°F96%70.8°F29.758 inHg158° (SSE)2 mph4 mph0.00 in
03:30 AM71.9°F96%70.7°F29.756 inHg158° (SSE)2 mph5 mph0.00 in
03:40 AM71.9°F96%70.7°F29.752 inHg112° (ESE)2 mph8 mph0.00 in
03:50 AM71.9°F96%70.7°F29.748 inHg158° (SSE)2 mph6 mph0.00 in
04:00 AM71.8°F96%70.6°F29.744 inHg158° (SSE)3 mph7 mph0.00 in
04:10 AM71.8°F96%70.6°F29.738 inHg158° (SSE)3 mph7 mph0.00 in
04:20 AM71.7°F96%70.5°F29.733 inHg112° (ESE)2 mph8 mph0.00 in
04:30 AM71.7°F96%70.5°F29.732 inHg158° (SSE)3 mph9 mph0.00 in
04:40 AM71.7°F96%70.5°F29.726 inHg158° (SSE)3 mph10 mph0.00 in
04:50 AM71.8°F96%70.6°F29.726 inHg158° (SSE)3 mph8 mph0.00 in
05:00 AM71.8°F96%70.6°F29.726 inHg158° (SSE)5 mph11 mph0.00 in
05:10 AM71.9°F96%70.7°F29.722 inHg158° (SSE)4 mph11 mph0.00 in
05:20 AM72.0°F96%70.8°F29.720 inHg135° (SE)4 mph10 mph0.00 in
05:30 AM72.2°F96%71.0°F29.719 inHg158° (SSE)4 mph9 mph0.00 in
05:40 AM72.5°F96%71.3°F29.718 inHg158° (SSE)5 mph12 mph0.00 in
05:50 AM72.7°F95%71.2°F29.716 inHg158° (SSE)4 mph9 mph0.00 in
06:00 AM72.9°F95%71.4°F29.717 inHg158° (SSE)5 mph11 mph0.00 in
06:10 AM73.0°F95%71.5°F29.713 inHg158° (SSE)5 mph15 mph0.00 in
06:20 AM73.2°F94%71.4°F29.709 inHg158° (SSE)6 mph17 mph0.00 in
06:30 AM73.3°F94%71.5°F29.707 inHg158° (SSE)6 mph13 mph0.00 in
06:40 AM73.5°F94%71.7°F29.706 inHg158° (SSE)6 mph14 mph0.00 in
06:50 AM73.8°F93%71.6°F29.705 inHg158° (SSE)7 mph16 mph0.00 in
07:00 AM74.0°F92%71.5°F29.706 inHg158° (SSE)7 mph20 mph0.00 in
07:10 AM74.1°F91%71.3°F29.707 inHg180° (S)6 mph14 mph0.00 in
07:20 AM74.3°F91%71.5°F29.707 inHg180° (S)6 mph15 mph0.00 in
07:30 AM74.5°F90%71.4°F29.712 inHg158° (SSE)7 mph19 mph0.00 in
07:40 AM75.0°F90%71.9°F29.709 inHg158° (SSE)5 mph12 mph0.00 in
07:50 AM75.5°F88%71.7°F29.705 inHg158° (SSE)8 mph22 mph0.00 in
08:00 AM76.0°F87%71.8°F29.709 inHg180° (S)7 mph20 mph0.00 in
08:10 AM76.2°F87%72.0°F29.713 inHg158° (SSE)7 mph15 mph0.00 in
08:20 AM76.2°F86%71.7°F29.711 inHg158° (SSE)7 mph16 mph0.00 in
08:30 AM76.4°F86%71.9°F29.710 inHg158° (SSE)7 mph15 mph0.00 in
08:40 AM76.8°F86%72.3°F29.703 inHg158° (SSE)8 mph18 mph0.00 in
08:50 AM77.8°F84%72.6°F29.708 inHg180° (S)7 mph17 mph0.00 in
09:00 AM78.3°F84%73.1°F29.707 inHg158° (SSE)7 mph18 mph0.00 in
09:10 AM78.9°F83%73.3°F29.706 inHg180° (S)7 mph18 mph0.00 in
09:20 AM79.4°F81%73.0°F29.705 inHg158° (SSE)8 mph21 mph0.00 in
09:30 AM79.7°F82%73.7°F29.703 inHg180° (S)7 mph21 mph0.00 in
09:40 AM79.5°F81%73.1°F29.707 inHg158° (SSE)6 mph15 mph0.00 in
09:50 AM80.3°F81%73.9°F29.705 inHg180° (S)5 mph16 mph0.00 in
10:00 AM80.4°F80%73.6°F29.703 inHg180° (S)5 mph15 mph0.00 in
10:10 AM81.1°F79%74.0°F29.700 inHg158° (SSE)6 mph15 mph0.00 in
10:20 AM81.7°F78%74.2°F29.699 inHg180° (S)5 mph14 mph0.00 in
10:30 AM81.5°F78%74.0°F29.697 inHg158° (SSE)8 mph19 mph0.00 in
10:40 AM82.4°F77%74.4°F29.699 inHg180° (S)5 mph13 mph0.00 in
10:50 AM82.8°F76%74.4°F29.697 inHg180° (S)7 mph15 mph0.00 in
11:00 AM83.2°F76%74.8°F29.697 inHg158° (SSE)7 mph16 mph0.00 in
11:10 AM83.8°F74%74.6°F29.696 inHg158° (SSE)7 mph18 mph0.00 in
11:20 AM84.8°F73%75.2°F29.697 inHg202° (SSW)4 mph11 mph0.00 in
11:30 AM85.0°F73%75.3°F29.697 inHg158° (SSE)5 mph15 mph0.00 in
11:40 AM85.1°F73%75.4°F29.696 inHg158° (SSE)7 mph16 mph0.00 in
11:50 AM86.2°F71%75.7°F29.694 inHg180° (S)5 mph17 mph0.00 in
12:00 PM86.3°F71%75.8°F29.697 inHg180° (S)6 mph16 mph0.00 in
12:10 PM86.8°F71%76.2°F29.695 inHg202° (SSW)5 mph13 mph0.00 in
12:20 PM85.9°F71%75.4°F29.700 inHg158° (SSE)7 mph15 mph0.00 in
12:30 PM85.8°F72%75.7°F29.697 inHg180° (S)6 mph18 mph0.00 in
12:40 PM87.0°F69%75.6°F29.694 inHg225° (SW)6 mph15 mph0.00 in
12:50 PM87.1°F68%75.2°F29.693 inHg158° (SSE)6 mph17 mph0.00 in
01:00 PM87.8°F68%75.9°F29.689 inHg202° (SSW)6 mph18 mph0.00 in
01:10 PM87.9°F67%75.5°F29.685 inHg202° (SSW)6 mph20 mph0.00 in
01:20 PM86.8°F69%75.4°F29.685 inHg225° (SW)5 mph15 mph0.00 in
01:30 PM87.9°F66%75.1°F29.679 inHg180° (S)5 mph14 mph0.00 in
01:40 PM89.2°F65%75.9°F29.676 inHg180° (S)5 mph16 mph0.00 in
01:50 PM89.4°F64%75.6°F29.673 inHg158° (SSE)7 mph20 mph0.00 in
02:00 PM89.7°F62%74.9°F29.673 inHg180° (S)7 mph16 mph0.00 in
02:10 PM88.9°F64%75.1°F29.669 inHg180° (S)5 mph14 mph0.00 in
02:20 PM88.8°F65%75.5°F29.664 inHg158° (SSE)7 mph14 mph0.00 in
02:30 PM89.3°F62%74.5°F29.662 inHg225° (SW)6 mph16 mph0.00 in
02:40 PM89.1°F61%73.9°F29.662 inHg158° (SSE)7 mph17 mph0.00 in
02:50 PM88.9°F61%73.7°F29.656 inHg225° (SW)6 mph17 mph0.00 in
03:00 PM89.0°F61%73.8°F29.653 inHg180° (S)8 mph22 mph0.00 in
03:10 PM89.2°F60%73.5°F29.649 inHg180° (S)6 mph17 mph0.00 in
03:20 PM88.4°F61%73.2°F29.654 inHg202° (SSW)7 mph20 mph0.00 in
03:30 PM87.6°F62%72.9°F29.650 inHg180° (S)7 mph20 mph0.00 in
03:40 PM88.2°F63%74.0°F29.649 inHg225° (SW)5 mph13 mph0.00 in
03:50 PM88.6°F62%73.9°F29.649 inHg202° (SSW)6 mph15 mph0.00 in
04:00 PM88.3°F63%74.1°F29.647 inHg202° (SSW)4 mph14 mph0.00 in
04:10 PM88.2°F62%73.5°F29.648 inHg180° (S)6 mph14 mph0.00 in
04:20 PM88.1°F63%73.9°F29.648 inHg180° (S)6 mph16 mph0.00 in
04:30 PM87.2°F63%73.0°F29.644 inHg202° (SSW)7 mph18 mph0.00 in
04:40 PM87.3°F64%73.6°F29.645 inHg158° (SSE)7 mph16 mph0.00 in
04:50 PM86.6°F65%73.4°F29.642 inHg180° (S)5 mph14 mph0.00 in
05:00 PM87.1°F64%73.4°F29.642 inHg180° (S)6 mph16 mph0.00 in
05:10 PM87.0°F64%73.3°F29.636 inHg180° (S)6 mph16 mph0.00 in
05:20 PM87.4°F64%73.7°F29.633 inHg225° (SW)5 mph14 mph0.00 in
05:30 PM87.1°F63%72.9°F29.630 inHg158° (SSE)7 mph17 mph0.00 in
05:40 PM86.3°F64%72.7°F29.629 inHg225° (SW)6 mph14 mph0.00 in
05:50 PM86.0°F65%72.8°F29.628 inHg180° (S)5 mph16 mph0.00 in
06:00 PM85.7°F65%72.5°F29.629 inHg225° (SW)6 mph15 mph0.00 in
06:10 PM85.5°F66%72.8°F29.626 inHg180° (S)6 mph15 mph0.00 in
06:20 PM85.5°F68%73.7°F29.623 inHg180° (S)4 mph16 mph0.00 in
06:30 PM84.7°F68%72.9°F29.627 inHg180° (S)8 mph22 mph0.00 in
06:40 PM84.4°F68%72.7°F29.627 inHg158° (SSE)7 mph16 mph0.00 in
06:50 PM84.3°F71%73.8°F29.627 inHg158° (SSE)5 mph17 mph0.00 in
07:00 PM83.7°F73%74.1°F29.630 inHg180° (S)7 mph17 mph0.00 in
07:10 PM83.1°F74%73.9°F29.630 inHg180° (S)5 mph12 mph0.00 in
07:20 PM82.8°F75%74.0°F29.629 inHg158° (SSE)5 mph14 mph0.00 in
07:30 PM82.2°F76%73.9°F29.632 inHg180° (S)7 mph16 mph0.00 in
07:40 PM81.8°F77%73.9°F29.634 inHg180° (S)5 mph13 mph0.00 in
07:50 PM81.4°F78%73.9°F29.640 inHg158° (SSE)5 mph14 mph0.00 in
08:00 PM80.9°F80%74.1°F29.643 inHg180° (S)5 mph13 mph0.00 in
08:10 PM80.3°F80%73.6°F29.643 inHg202° (SSW)5 mph13 mph0.00 in